Time;durP1;ratioP1;P1;durP2;ratioP2;P2;SDS_P1;SDS_P2;PMS_P1;PMS_P2;Temp;Humidity;BMP_temperature;BMP_pressure;BME280_temperature;BME280_humidity;BME280_pressure;Samples;Min_cycle;Max_cycle;Signal;HPM_P1;HPM_P2
2022/11/18 00:01:45;;;;;;;19.48;15.25;;;6.50;99.90;;;;;;5130214;27;20442;-74
2022/11/18 00:04:11;;;;;;;16.95;12.20;;;6.50;99.90;;;;;;5130677;27;20892;-74
2022/11/18 00:06:36;;;;;;;17.87;13.83;;;6.50;99.90;;;;;;5096603;28;20449;-74
2022/11/18 00:09:02;;;;;;;15.83;12.17;;;6.50;99.90;;;;;;5130081;27;20490;-73
2022/11/18 00:14:31;;;;;;;18.90;15.10;;;6.50;99.90;;;;;;5110016;27;21195;-74
2022/11/18 00:17:02;;;;;;;17.33;13.80;;;6.50;99.90;;;;;;5130411;27;20407;-73
2022/11/18 00:19:39;;;;;;;17.50;13.63;;;6.50;99.90;;;;;;5131000;27;20510;-73
2022/11/18 00:22:06;;;;;;;21.08;14.73;;;6.50;99.90;;;;;;5111649;27;20752;-74
2022/11/18 00:24:32;;;;;;;15.88;12.20;;;6.50;99.90;;;;;;5122291;27;20407;-74
2022/11/18 00:26:58;;;;;;;17.90;13.60;;;6.50;99.90;;;;;;5118087;27;20461;-73
2022/11/18 00:29:27;;;;;;;16.42;11.80;;;6.50;99.90;;;;;;5107957;28;20420;-73
2022/11/18 00:31:54;;;;;;;14.80;10.17;;;6.40;99.90;;;;;;5124021;27;20398;-74
2022/11/18 00:34:20;;;;;;;13.75;9.90;;;6.50;99.90;;;;;;5131027;27;20395;-74
2022/11/18 00:36:46;;;;;;;15.00;11.45;;;6.50;99.90;;;;;;5130028;27;20399;-73
2022/11/18 00:39:14;;;;;;;15.02;10.40;;;6.50;99.90;;;;;;5124135;27;20463;-73
2022/11/18 00:44:25;;;;;;;16.30;11.20;;;6.50;99.90;;;;;;5099388;28;20469;-74
2022/11/18 00:46:51;;;;;;;16.48;10.57;;;6.50;99.90;;;;;;5126764;27;20459;-73
2022/11/18 00:49:17;;;;;;;16.13;11.57;;;6.50;99.90;;;;;;5111970;27;20459;-74
2022/11/18 00:51:42;;;;;;;20.30;14.73;;;6.40;99.90;;;;;;5129637;27;20400;-73
2022/11/18 00:54:08;;;;;;;20.35;13.02;;;6.50;99.90;;;;;;5130719;27;20895;-73
2022/11/18 00:56:33;;;;;;;18.73;12.87;;;6.40;99.90;;;;;;5123395;27;20411;-74
2022/11/18 00:58:59;;;;;;;29.30;18.58;;;6.40;99.90;;;;;;5121479;27;20761;-74
2022/11/18 01:01:25;;;;;;;27.35;19.65;;;6.40;99.90;;;;;;5111660;27;20816;-73
2022/11/18 01:03:51;;;;;;;30.23;20.60;;;6.40;99.90;;;;;;5121697;27;20392;-74
2022/11/18 01:06:16;;;;;;;30.33;20.00;;;6.40;99.90;;;;;;5126583;27;20399;-73
2022/11/18 01:08:42;;;;;;;28.73;19.27;;;6.40;99.90;;;;;;5124026;27;20996;-74
2022/11/18 01:13:53;;;;;;;30.38;21.65;;;6.40;99.90;;;;;;5131136;27;20450;-73
2022/11/18 01:16:20;;;;;;;26.98;19.40;;;6.40;99.90;;;;;;5130912;27;20806;-73
2022/11/18 01:18:46;;;;;;;21.40;15.73;;;6.30;99.90;;;;;;5103451;27;20469;-74
2022/11/18 01:21:11;;;;;;;20.40;14.27;;;6.30;99.90;;;;;;5130647;27;20780;-73
2022/11/18 01:23:37;;;;;;;19.53;13.57;;;6.30;99.90;;;;;;5095759;28;20400;-74
2022/11/18 01:26:08;;;;;;;16.80;11.13;;;6.30;99.90;;;;;;5123352;27;20399;-74
2022/11/18 01:28:35;;;;;;;15.93;10.20;;;6.30;99.90;;;;;;5130705;27;20804;-73
2022/11/18 01:31:10;;;;;;;14.90;9.75;;;6.30;99.90;;;;;;5129863;27;20421;-74
2022/11/18 01:33:36;;;;;;;12.38;8.38;;;6.30;99.90;;;;;;5108937;28;20450;-73
2022/11/18 01:36:01;;;;;;;13.80;8.57;;;6.30;99.90;;;;;;5129607;27;20828;-74
2022/11/18 01:38:27;;;;;;;12.55;8.52;;;6.30;99.90;;;;;;5103164;27;20543;-73
2022/11/18 01:40:56;;;;;;;13.15;8.30;;;6.30;99.90;;;;;;5130376;27;20414;-73
2022/11/18 01:43:22;;;;;;;13.88;8.98;;;6.30;99.90;;;;;;5111660;27;20414;-74
2022/11/18 01:45:51;;;;;;;15.00;9.90;;;6.30;99.90;;;;;;5130244;27;20406;-74
2022/11/18 01:48:27;;;;;;;14.27;9.45;;;6.30;99.90;;;;;;5130114;27;20439;-73
2022/11/18 01:51:03;;;;;;;14.77;10.32;;;6.30;99.90;;;;;;5129646;27;20415;-74
2022/11/18 01:53:33;;;;;;;17.67;10.93;;;6.30;99.90;;;;;;5112670;27;20404;-74
2022/11/18 01:56:04;;;;;;;18.65;13.20;;;6.30;99.90;;;;;;5113755;27;20455;-74
2022/11/18 01:58:40;;;;;;;20.27;13.38;;;6.30;99.90;;;;;;5117292;27;20418;-73
2022/11/18 02:01:07;;;;;;;25.52;15.63;;;6.30;99.90;;;;;;5119865;27;20412;-73
2022/11/18 02:03:34;;;;;;;24.13;15.85;;;6.30;99.90;;;;;;5129891;27;20394;-73
2022/11/18 02:06:02;;;;;;;29.85;18.20;;;6.30;99.90;;;;;;5116555;27;20473;-73
2022/11/18 02:08:29;;;;;;;29.65;18.92;;;6.30;99.90;;;;;;5111305;27;20410;-73
2022/11/18 02:10:55;;;;;;;35.75;20.80;;;6.20;99.90;;;;;;5097529;27;20908;-73
2022/11/18 02:13:21;;;;;;;27.73;17.27;;;6.30;99.90;;;;;;5111453;27;20403;-73
2022/11/18 02:16:12;;;;;;;27.25;17.35;;;6.30;99.90;;;;;;5110473;27;20408;-74
2022/11/18 02:18:46;;;;;;;28.52;16.15;;;6.30;99.90;;;;;;5099739;28;20435;-74
2022/11/18 02:21:15;;;;;;;28.25;17.35;;;6.20;99.90;;;;;;5129861;27;20754;-74
2022/11/18 02:24:20;;;;;;;25.00;15.33;;;6.20;99.90;;;;;;5097337;28;20412;-74
2022/11/18 02:27:17;;;;;;;32.55;20.63;;;6.20;99.90;;;;;;5103465;27;20472;-73
2022/11/18 02:29:47;;;;;;;28.38;17.33;;;6.20;99.90;;;;;;5101622;28;20465;-74
2022/11/18 02:32:17;;;;;;;33.78;19.95;;;6.20;99.90;;;;;;5112999;27;20410;-74
2022/11/18 02:34:56;;;;;;;33.45;20.70;;;6.20;99.90;;;;;;5127931;27;20394;-74
2022/11/18 02:37:33;;;;;;;35.40;20.93;;;6.20;99.90;;;;;;5104942;28;20883;-73
2022/11/18 02:40:08;;;;;;;34.65;20.58;;;6.20;99.90;;;;;;5128546;27;20489;-73
2022/11/18 02:42:37;;;;;;;36.65;20.90;;;6.20;99.90;;;;;;5079698;28;20986;-73
2022/11/18 02:45:08;;;;;;;34.20;21.73;;;6.20;99.90;;;;;;5125669;27;20449;-73
2022/11/18 02:47:36;;;;;;;35.70;21.10;;;6.10;99.90;;;;;;5128170;27;20395;-74
2022/11/18 02:50:07;;;;;;;33.05;19.45;;;6.10;99.90;;;;;;5128688;27;20395;-74
2022/11/18 02:52:35;;;;;;;32.97;20.20;;;6.10;99.90;;;;;;5128949;27;20402;-73
2022/11/18 02:55:04;;;;;;;31.17;19.60;;;6.10;99.90;;;;;;5128517;27;20428;-74
2022/11/18 02:57:32;;;;;;;30.58;20.00;;;6.10;99.90;;;;;;5129262;27;20403;-74
2022/11/18 02:59:57;;;;;;;33.03;20.83;;;6.10;99.90;;;;;;5106548;28;20405;-73
2022/11/18 03:02:23;;;;;;;32.53;19.83;;;6.10;99.90;;;;;;5106737;28;20412;-73
2022/11/18 03:04:53;;;;;;;32.78;20.75;;;6.10;99.90;;;;;;5114481;28;20405;-74
2022/11/18 03:07:28;;;;;;;31.70;20.15;;;6.10;99.90;;;;;;5099278;28;20401;-74
2022/11/18 03:09:55;;;;;;;36.35;23.00;;;6.10;99.90;;;;;;5115862;28;20927;-74
2022/11/18 03:12:40;;;;;;;38.87;23.67;;;6.10;99.90;;;;;;5128240;28;20464;-73
2022/11/18 03:15:29;;;;;;;33.53;20.77;;;6.10;99.90;;;;;;5126959;28;20403;-73
2022/11/18 03:18:04;;;;;;;35.83;22.02;;;6.10;99.90;;;;;;5115036;28;20418;-73
2022/11/18 03:20:37;;;;;;;35.53;20.95;;;6.10;99.90;;;;;;5127121;28;20411;-73
2022/11/18 03:23:35;;;;;;;33.65;19.83;;;6.10;99.90;;;;;;5128152;28;20399;-74
2022/11/18 03:26:12;;;;;;;29.10;19.17;;;6.10;99.90;;;;;;5127895;28;20422;-73
2022/11/18 03:29:05;;;;;;;31.57;19.73;;;6.10;99.90;;;;;;5096532;27;20929;-73
2022/11/18 03:31:48;;;;;;;27.25;17.38;;;6.10;99.90;;;;;;5131895;27;20426;-73
2022/11/18 03:34:29;;;;;;;28.08;16.80;;;6.10;99.90;;;;;;5116807;27;20938;-74
2022/11/18 03:36:58;;;;;;;28.95;17.45;;;6.10;99.90;;;;;;5118440;27;20447;-73
2022/11/18 03:39:27;;;;;;;25.08;15.38;;;6.10;99.90;;;;;;5131504;27;20834;-73
2022/11/18 03:41:59;;;;;;;23.75;15.18;;;6.00;99.90;;;;;;5131075;27;20779;-73
2022/11/18 03:44:33;;;;;;;27.85;17.13;;;6.00;99.90;;;;;;5131782;27;20900;-74
2022/11/18 03:47:09;;;;;;;22.53;14.60;;;6.10;99.90;;;;;;5131875;27;20848;-74
2022/11/18 03:49:54;;;;;;;29.45;18.48;;;6.00;99.90;;;;;;5131581;27;20407;-74
2022/11/18 03:52:24;;;;;;;30.95;18.88;;;6.00;99.90;;;;;;5120970;27;20837;-74
2022/11/18 03:54:53;;;;;;;25.00;16.27;;;6.00;99.90;;;;;;5115471;27;20411;-73
2022/11/18 03:57:26;;;;;;;18.13;11.93;;;6.00;99.90;;;;;;5112489;27;20415;-73
2022/11/18 04:00:07;;;;;;;25.30;14.82;;;6.10;99.90;;;;;;5128985;27;20980;-73
2022/11/18 04:02:33;;;;;;;24.70;14.80;;;6.10;99.90;;;;;;5128362;27;20553;-74
2022/11/18 04:05:01;;;;;;;19.55;11.90;;;6.00;99.90;;;;;;5113719;27;20481;-73
2022/11/18 04:07:32;;;;;;;17.67;10.30;;;6.00;99.90;;;;;;5103458;28;20408;-74
2022/11/18 04:10:06;;;;;;;16.40;10.73;;;6.00;99.90;;;;;;5101271;27;20406;-73
2022/11/18 04:12:38;;;;;;;19.13;11.30;;;6.00;99.90;;;;;;5111250;27;20415;-73
2022/11/18 04:15:04;;;;;;;16.17;10.63;;;6.00;99.90;;;;;;5121528;27;20406;-74
2022/11/18 04:17:30;;;;;;;17.42;10.82;;;6.00;99.90;;;;;;5118958;27;20485;-73
2022/11/18 04:19:56;;;;;;;17.48;10.77;;;6.00;99.90;;;;;;5131981;27;20485;-73
2022/11/18 04:22:22;;;;;;;18.50;10.80;;;6.00;99.90;;;;;;5112270;27;20768;-74
2022/11/18 04:24:47;;;;;;;22.02;13.30;;;6.00;99.90;;;;;;5131412;27;20496;-73
2022/11/18 04:27:13;;;;;;;19.88;13.07;;;6.00;99.90;;;;;;5108673;28;20410;-74
2022/11/18 04:29:39;;;;;;;21.93;13.43;;;6.00;99.90;;;;;;5110463;28;20397;-73
2022/11/18 04:32:05;;;;;;;22.27;14.17;;;6.00;99.90;;;;;;5089210;27;20402;-73
2022/11/18 04:34:31;;;;;;;17.90;11.98;;;6.00;99.90;;;;;;5111488;27;20524;-74
2022/11/18 04:36:57;;;;;;;20.10;12.98;;;6.00;99.90;;;;;;5096592;28;20757;-74
2022/11/18 04:39:23;;;;;;;20.95;12.88;;;6.00;99.90;;;;;;5110592;27;20523;-74
2022/11/18 04:41:54;;;;;;;19.73;12.95;;;6.00;99.90;;;;;;5125298;27;20541;-73
2022/11/18 04:44:31;;;;;;;18.13;11.68;;;6.00;99.90;;;;;;5125895;27;20398;-73
2022/11/18 04:46:59;;;;;;;14.73;9.75;;;6.00;99.90;;;;;;5095581;28;20801;-73
2022/11/18 04:49:25;;;;;;;14.53;9.40;;;6.00;99.90;;;;;;5122992;27;20485;-74
2022/11/18 04:51:52;;;;;;;15.70;9.70;;;6.00;99.90;;;;;;5120298;27;20741;-73
2022/11/18 04:54:18;;;;;;;16.00;9.60;;;6.00;99.90;;;;;;5130795;27;20402;-73
2022/11/18 04:56:44;;;;;;;14.63;9.10;;;6.00;99.90;;;;;;5124515;27;20457;-74
2022/11/18 04:59:12;;;;;;;14.55;9.13;;;6.00;99.90;;;;;;5122588;27;20427;-74
2022/11/18 05:01:38;;;;;;;14.73;8.82;;;6.00;99.90;;;;;;5117214;27;20418;-73
2022/11/18 05:04:05;;;;;;;14.20;8.95;;;6.00;99.90;;;;;;5112785;27;20426;-73
2022/11/18 05:06:32;;;;;;;16.10;9.70;;;6.00;99.90;;;;;;5125867;27;20403;-73
2022/11/18 05:08:58;;;;;;;15.38;8.82;;;6.00;99.90;;;;;;5114939;27;20404;-73
2022/11/18 05:14:09;;;;;;;19.58;11.20;;;6.00;99.90;;;;;;5126730;27;20407;-73
2022/11/18 05:16:35;;;;;;;18.20;11.63;;;6.00;99.90;;;;;;5121697;27;20404;-73
2022/11/18 05:19:02;;;;;;;22.13;12.57;;;6.00;99.90;;;;;;5126719;27;20426;-74
2022/11/18 05:21:28;;;;;;;22.15;12.80;;;6.00;99.90;;;;;;5130527;27;20451;-74
2022/11/18 05:23:53;;;;;;;19.17;11.55;;;6.00;99.90;;;;;;5130774;27;20414;-73
2022/11/18 05:26:19;;;;;;;18.27;10.40;;;5.90;99.90;;;;;;5130905;27;20975;-73
2022/11/18 05:28:44;;;;;;;18.42;9.95;;;5.90;99.90;;;;;;5129537;27;20960;-73
2022/11/18 05:31:13;;;;;;;18.70;10.87;;;5.90;99.90;;;;;;5130841;27;20409;-74
2022/11/18 05:33:39;;;;;;;18.73;10.68;;;5.90;99.90;;;;;;5110463;27;20400;-74
2022/11/18 05:36:23;;;;;;;18.25;10.32;;;5.90;99.90;;;;;;5109337;28;20799;-73
2022/11/18 05:38:49;;;;;;;18.58;10.02;;;5.90;99.90;;;;;;5091329;28;20435;-73
2022/11/18 05:44:00;;;;;;;18.88;10.30;;;5.90;99.90;;;;;;5104503;28;20501;-74
2022/11/18 05:46:26;;;;;;;15.75;9.25;;;5.90;99.90;;;;;;5124062;27;20479;-74
2022/11/18 05:48:52;;;;;;;19.90;10.93;;;5.90;99.90;;;;;;5117328;27;20395;-74
2022/11/18 05:51:18;;;;;;;22.52;12.82;;;5.90;99.90;;;;;;5119106;27;20747;-74
2022/11/18 05:53:44;;;;;;;24.70;12.35;;;5.80;99.90;;;;;;5092907;28;20458;-73
2022/11/18 05:56:37;;;;;;;22.15;11.05;;;5.80;99.90;;;;;;5097549;27;20418;-73
2022/11/18 05:59:03;;;;;;;31.27;17.15;;;5.80;99.90;;;;;;5110473;27;20438;-73
2022/11/18 06:02:03;;;;;;;33.17;19.97;;;5.80;99.90;;;;;;5130112;27;20752;-73
2022/11/18 06:04:39;;;;;;;32.47;19.80;;;5.80;99.90;;;;;;5111983;27;20396;-74
2022/11/18 06:07:17;;;;;;;35.65;18.23;;;5.80;99.90;;;;;;5107856;28;20416;-74
2022/11/18 06:09:47;;;;;;;36.38;19.45;;;5.80;99.90;;;;;;5127854;27;20446;-73
2022/11/18 06:12:17;;;;;;;30.35;16.40;;;5.80;99.90;;;;;;5098937;28;21105;-74
2022/11/18 06:14:49;;;;;;;30.30;15.95;;;5.80;99.90;;;;;;5127540;27;20760;-73
2022/11/18 06:17:20;;;;;;;31.50;15.87;;;5.80;99.90;;;;;;5130319;27;20447;-73
2022/11/18 06:19:46;;;;;;;26.20;14.98;;;5.80;99.90;;;;;;5122256;27;20396;-74
2022/11/18 06:22:12;;;;;;;28.17;14.85;;;5.80;99.90;;;;;;5111755;27;20407;-74
2022/11/18 06:24:39;;;;;;;26.33;13.95;;;5.80;99.90;;;;;;5118734;27;20758;-73
2022/11/18 06:27:04;;;;;;;23.95;12.27;;;5.80;99.90;;;;;;5128258;27;20755;-73
2022/11/18 06:29:30;;;;;;;22.48;12.18;;;5.80;99.90;;;;;;5117681;27;20391;-73
2022/11/18 06:31:56;;;;;;;24.55;12.52;;;5.80;99.90;;;;;;5128941;27;20408;-74
2022/11/18 06:34:22;;;;;;;34.47;18.70;;;5.80;99.90;;;;;;5123899;27;20483;-74
2022/11/18 06:36:47;;;;;;;39.77;23.27;;;5.70;99.90;;;;;;5124395;27;20394;-73
2022/11/18 06:39:13;;;;;;;41.00;25.02;;;5.70;99.90;;;;;;5111092;27;20450;-74
2022/11/18 06:41:38;;;;;;;34.00;19.97;;;5.70;99.90;;;;;;5109079;27;20495;-75
2022/11/18 06:44:04;;;;;;;28.20;15.30;;;5.70;99.90;;;;;;5104343;27;20430;-73
2022/11/18 06:49:14;;;;;;;35.90;21.90;;;5.70;99.90;;;;;;5124483;27;20421;-73
2022/11/18 06:51:40;;;;;;;38.73;22.17;;;5.70;99.90;;;;;;5128526;27;20415;-74
2022/11/18 06:54:05;;;;;;;38.67;21.52;;;5.70;99.90;;;;;;5128271;27;20430;-73
2022/11/18 06:56:31;;;;;;;35.13;20.07;;;5.70;99.90;;;;;;5128753;27;20514;-74
2022/11/18 06:58:58;;;;;;;33.95;20.33;;;5.70;99.90;;;;;;5127791;27;20426;-73
2022/11/18 07:01:26;;;;;;;39.47;22.88;;;5.60;99.90;;;;;;5128866;28;20399;-74
2022/11/18 07:03:52;;;;;;;40.20;23.75;;;5.70;99.90;;;;;;5110651;28;20480;-74
2022/11/18 07:06:24;;;;;;;48.10;26.67;;;5.60;99.90;;;;;;5132391;27;20395;-73
2022/11/18 07:08:50;;;;;;;37.45;21.85;;;5.70;99.90;;;;;;5136052;27;20417;-74
2022/11/18 07:11:18;;;;;;;42.33;25.73;;;5.70;99.90;;;;;;5103985;27;20829;-73
2022/11/18 07:13:45;;;;;;;48.53;28.13;;;5.60;99.90;;;;;;5105655;28;20408;-73
2022/11/18 07:16:13;;;;;;;46.15;26.65;;;5.60;99.90;;;;;;5115411;27;20406;-74
2022/11/18 07:18:41;;;;;;;40.70;23.25;;;5.60;99.90;;;;;;5132405;27;20424;-74
2022/11/18 07:21:09;;;;;;;40.92;24.08;;;5.60;99.90;;;;;;5121055;27;20398;-73
2022/11/18 07:23:35;;;;;;;44.95;26.15;;;5.50;99.90;;;;;;5124402;27;20438;-73
2022/11/18 07:26:01;;;;;;;42.93;24.33;;;5.60;99.90;;;;;;5100830;28;20432;-74
2022/11/18 07:28:27;;;;;;;46.85;27.10;;;5.50;99.90;;;;;;5114417;28;20928;-73
2022/11/18 07:31:03;;;;;;;45.63;26.30;;;5.50;99.90;;;;;;5134669;27;20430;-73
2022/11/18 07:33:30;;;;;;;44.03;27.40;;;5.50;99.90;;;;;;5135656;27;20441;-74
2022/11/18 07:35:59;;;;;;;42.95;24.67;;;5.60;99.90;;;;;;5113722;28;20404;-73
2022/11/18 07:38:24;;;;;;;39.95;23.10;;;5.50;99.90;;;;;;5099321;27;20433;-73
2022/11/18 07:40:50;;;;;;;40.47;24.07;;;5.60;99.90;;;;;;5135491;27;20402;-73
2022/11/18 07:43:15;;;;;;;44.15;25.13;;;5.50;99.90;;;;;;5123381;27;20408;-73
2022/11/18 07:45:41;;;;;;;42.67;25.40;;;5.50;99.90;;;;;;5135656;27;20455;-74
2022/11/18 07:48:07;;;;;;;45.17;25.08;;;5.50;99.90;;;;;;5130745;27;20402;-73
2022/11/18 07:50:32;;;;;;;47.90;25.87;;;5.50;99.90;;;;;;5133798;27;20410;-74
2022/11/18 07:52:59;;;;;;;43.60;24.85;;;5.50;99.90;;;;;;5134752;27;21468;-73
2022/11/18 07:55:25;;;;;;;46.37;23.67;;;5.50;99.90;;;;;;5117053;27;20439;-73
2022/11/18 07:57:51;;;;;;;39.70;23.05;;;5.50;99.90;;;;;;5103738;27;20789;-74
2022/11/18 08:00:17;;;;;;;40.20;21.60;;;5.40;99.90;;;;;;5113114;28;20403;-73
2022/11/18 08:02:42;;;;;;;37.77;21.10;;;5.50;99.90;;;;;;5116478;27;20403;-73
2022/11/18 08:05:09;;;;;;;39.13;21.02;;;5.40;99.90;;;;;;5135985;27;20905;-73
2022/11/18 08:07:34;;;;;;;43.10;23.65;;;5.40;99.90;;;;;;5133187;27;20404;-73
2022/11/18 08:10:02;;;;;;;43.63;24.63;;;5.40;99.90;;;;;;5135027;27;20943;-74
2022/11/18 08:12:29;;;;;;;45.58;25.55;;;5.40;99.90;;;;;;5111725;27;20495;-73
2022/11/18 08:14:55;;;;;;;58.30;29.53;;;5.40;99.90;;;;;;5111023;28;20404;-74
2022/11/18 08:17:21;;;;;;;50.87;28.67;;;5.40;99.90;;;;;;5108447;27;20411;-73
2022/11/18 08:19:47;;;;;;;56.87;30.30;;;5.40;99.90;;;;;;5104011;28;20449;-73
2022/11/18 08:22:12;;;;;;;54.17;28.75;;;5.40;99.90;;;;;;5113450;27;20433;-73
2022/11/18 08:24:38;;;;;;;51.90;27.47;;;5.40;99.90;;;;;;5131804;27;20518;-73
2022/11/18 08:27:04;;;;;;;35.40;19.07;;;5.30;99.90;;;;;;5128906;27;20410;-73
2022/11/18 08:29:29;;;;;;;34.38;18.20;;;5.30;99.90;;;;;;5131207;27;20733;-73
2022/11/18 08:31:55;;;;;;;33.87;18.60;;;5.40;99.90;;;;;;5131290;27;20401;-73
2022/11/18 08:34:20;;;;;;;40.10;21.58;;;5.30;99.90;;;;;;5125147;27;20466;-73
2022/11/18 08:36:46;;;;;;;49.83;26.80;;;5.30;99.90;;;;;;5126161;27;20423;-73
2022/11/18 08:39:12;;;;;;;52.85;28.88;;;5.20;99.90;;;;;;5131545;27;20433;-73
2022/11/18 08:41:40;;;;;;;41.47;22.33;;;5.20;99.90;;;;;;5130962;27;20410;-73
2022/11/18 08:44:06;;;;;;;37.00;19.57;;;5.20;99.90;;;;;;5119148;27;20399;-73
2022/11/18 08:46:32;;;;;;;34.72;17.70;;;5.20;99.90;;;;;;5117224;27;20404;-73
2022/11/18 08:48:58;;;;;;;37.00;17.80;;;5.20;99.90;;;;;;5123148;27;20404;-73
2022/11/18 08:51:24;;;;;;;31.47;17.63;;;5.20;99.90;;;;;;5112460;27;20885;-74
2022/11/18 08:53:50;;;;;;;52.23;25.60;;;5.20;99.90;;;;;;5111128;27;20398;-73
2022/11/18 08:56:18;;;;;;;57.30;30.15;;;5.20;99.90;;;;;;5130184;27;20383;-73
2022/11/18 08:58:44;;;;;;;59.00;31.60;;;5.10;99.90;;;;;;5130316;27;20418;-73
2022/11/18 09:01:11;;;;;;;59.70;32.53;;;5.10;99.90;;;;;;5116885;27;20419;-72
2022/11/18 09:03:37;;;;;;;57.30;31.67;;;5.10;99.90;;;;;;5121026;27;20556;-73
2022/11/18 09:06:10;;;;;;;50.25;25.98;;;5.10;99.90;;;;;;5087738;27;20408;-73
2022/11/18 09:08:36;;;;;;;57.33;28.55;;;5.10;99.90;;;;;;5119759;27;20409;-73
2022/11/18 09:11:11;;;;;;;59.33;29.85;;;5.00;99.90;;;;;;5129405;27;20390;-73
2022/11/18 09:13:38;;;;;;;68.35;32.75;;;5.00;99.90;;;;;;5130517;27;20752;-73
2022/11/18 09:16:04;;;;;;;68.78;31.95;;;5.00;99.90;;;;;;5130258;27;20893;-73
2022/11/18 09:18:29;;;;;;;63.83;32.03;;;5.00;99.90;;;;;;5108626;28;20485;-74
2022/11/18 09:20:57;;;;;;;72.00;34.07;;;5.00;99.90;;;;;;5115386;27;20891;-73
2022/11/18 09:23:23;;;;;;;49.25;27.13;;;5.00;99.90;;;;;;5119149;27;20857;-73
2022/11/18 09:25:56;;;;;;;39.70;19.83;;;5.00;99.90;;;;;;5115361;27;20433;-73
2022/11/18 09:28:22;;;;;;;42.00;20.33;;;5.00;99.90;;;;;;5129969;27;20390;-73
2022/11/18 09:30:48;;;;;;;37.65;17.45;;;4.90;99.90;;;;;;5115847;27;20838;-73
2022/11/18 09:33:14;;;;;;;40.50;17.90;;;4.90;99.90;;;;;;5117914;27;20400;-73
2022/11/18 09:35:43;;;;;;;40.72;20.50;;;4.90;99.90;;;;;;5093710;28;20400;-73
2022/11/18 09:38:09;;;;;;;49.28;23.88;;;4.90;99.90;;;;;;5114493;27;20453;-74
2022/11/18 09:40:54;;;;;;;39.97;19.73;;;4.90;99.90;;;;;;5111700;27;20861;-73
2022/11/18 09:43:24;;;;;;;35.22;17.73;;;4.90;99.90;;;;;;5104354;27;20908;-73
2022/11/18 09:45:57;;;;;;;45.08;24.77;;;5.00;99.90;;;;;;5118836;27;20403;-73
2022/11/18 09:49:11;;;;;;;49.10;26.52;;;4.90;99.90;;;;;;5130307;27;20401;-73
2022/11/18 09:51:10;;;;;;;40.83;21.13;;;4.90;99.90;;;;;;5118417;27;20432;-72
2022/11/18 09:53:43;;;;;;;47.38;25.27;;;4.90;99.90;;;;;;5129334;27;20391;-73
2022/11/18 09:56:14;;;;;;;52.13;27.50;;;4.90;99.90;;;;;;5102534;28;20417;-73
2022/11/18 09:58:40;;;;;;;45.42;24.92;;;4.80;99.90;;;;;;5117369;27;20418;-73
2022/11/18 10:01:13;;;;;;;45.05;24.63;;;4.80;99.90;;;;;;5109136;27;20403;-73
2022/11/18 10:03:39;;;;;;;49.92;27.55;;;4.80;99.90;;;;;;5129375;27;20402;-73
2022/11/18 10:06:08;;;;;;;48.22;26.17;;;4.80;99.90;;;;;;5130047;27;20567;-72
2022/11/18 10:08:34;;;;;;;39.10;21.63;;;4.80;99.90;;;;;;5096778;28;20489;-72
2022/11/18 10:11:09;;;;;;;38.38;21.45;;;4.80;99.90;;;;;;5124730;27;20986;-73
2022/11/18 10:14:02;;;;;;;44.40;25.58;;;4.80;99.90;;;;;;5119232;27;20408;-73
2022/11/18 10:16:50;;;;;;;48.63;29.52;;;4.80;99.90;;;;;;5107131;28;20440;-73
2022/11/18 10:19:31;;;;;;;46.20;25.30;;;4.80;99.90;;;;;;5126480;27;20422;-72
2022/11/18 10:22:28;;;;;;;36.83;19.97;;;4.80;99.90;;;;;;5117227;27;20756;-73
2022/11/18 10:24:56;;;;;;;35.83;20.55;;;4.90;99.90;;;;;;5119968;27;20810;-73
2022/11/18 10:27:25;;;;;;;35.13;18.93;;;4.90;99.90;;;;;;5106810;28;20969;-73
2022/11/18 10:29:54;;;;;;;33.85;18.55;;;4.80;99.90;;;;;;5111263;27;20924;-73
2022/11/18 10:32:20;;;;;;;29.83;17.15;;;4.80;99.90;;;;;;5115822;27;20398;-73
2022/11/18 10:34:49;;;;;;;41.17;22.00;;;4.80;99.90;;;;;;5120181;27;20400;-73
2022/11/18 10:37:36;;;;;;;37.80;23.17;;;4.80;99.90;;;;;;5110628;27;20403;-72
2022/11/18 10:40:04;;;;;;;39.35;23.52;;;4.80;99.90;;;;;;5123454;27;20406;-73
2022/11/18 10:42:45;;;;;;;41.57;24.20;;;4.80;99.90;;;;;;5110873;27;20421;-72
2022/11/18 10:45:26;;;;;;;43.95;26.73;;;4.70;99.90;;;;;;5110799;27;20426;-73
2022/11/18 10:48:16;;;;;;;38.92;22.25;;;4.80;99.90;;;;;;5129427;27;20399;-72
2022/11/18 10:50:45;;;;;;;37.65;19.83;;;4.80;99.90;;;;;;5117858;27;20395;-71
2022/11/18 10:53:30;;;;;;;38.17;22.27;;;4.70;99.90;;;;;;5109638;27;20418;-73
2022/11/18 10:56:00;;;;;;;47.63;28.75;;;4.70;99.90;;;;;;5107574;28;20778;-72
2022/11/18 10:58:28;;;;;;;47.17;27.02;;;4.70;99.90;;;;;;5127800;27;20414;-73
2022/11/18 11:01:12;;;;;;;40.07;22.67;;;4.60;99.90;;;;;;5097342;28;20912;-73
2022/11/18 11:03:40;;;;;;;40.43;23.83;;;4.60;99.90;;;;;;5096810;28;20483;-73
2022/11/18 11:06:25;;;;;;;45.57;26.67;;;4.60;99.90;;;;;;5124676;28;21203;-72
2022/11/18 11:09:01;;;;;;;36.67;21.75;;;4.60;99.90;;;;;;5129363;28;20459;-73
2022/11/18 11:11:31;;;;;;;38.95;21.27;;;4.60;99.90;;;;;;5121487;28;20407;-73
2022/11/18 11:14:17;;;;;;;34.87;20.37;;;4.60;99.90;;;;;;5128405;28;20945;-73
2022/11/18 11:16:57;;;;;;;35.53;21.33;;;4.60;99.90;;;;;;5118698;28;20426;-73
2022/11/18 11:19:27;;;;;;;34.72;20.75;;;4.60;99.90;;;;;;5126880;28;20505;-72
2022/11/18 11:21:53;;;;;;;41.08;22.05;;;4.60;99.90;;;;;;5092843;28;20403;-73
2022/11/18 11:24:23;;;;;;;36.55;20.42;;;4.60;99.90;;;;;;5103660;28;20918;-72
2022/11/18 11:26:55;;;;;;;36.22;21.15;;;4.60;99.90;;;;;;5090573;28;20404;-73
2022/11/18 11:29:36;;;;;;;35.53;21.35;;;4.50;99.90;;;;;;5128651;28;20802;-73
2022/11/18 11:32:23;;;;;;;37.40;21.08;;;4.50;99.90;;;;;;5110466;28;20407;-73
2022/11/18 11:35:05;;;;;;;38.45;20.58;;;4.40;99.90;;;;;;5128567;28;20402;-72
2022/11/18 11:37:42;;;;;;;39.53;22.03;;;4.40;99.90;;;;;;5103354;28;20411;-72
2022/11/18 11:40:33;;;;;;;39.60;21.48;;;4.40;99.90;;;;;;5108590;28;20409;-72
2022/11/18 11:43:30;;;;;;;38.67;23.50;;;4.40;99.90;;;;;;5100504;28;20482;-72
2022/11/18 11:46:31;;;;;;;38.70;22.40;;;4.40;99.90;;;;;;5100301;28;20768;-73
2022/11/18 11:49:14;;;;;;;38.17;21.92;;;4.30;99.90;;;;;;5095257;28;20474;-72
2022/11/18 11:51:53;;;;;;;37.80;22.98;;;4.40;99.90;;;;;;5120619;27;20434;-72
2022/11/18 11:54:28;;;;;;;38.20;21.48;;;4.40;99.90;;;;;;5132143;27;20430;-73
2022/11/18 11:57:01;;;;;;;36.80;21.42;;;4.30;99.90;;;;;;5119490;27;20455;-72
2022/11/18 11:59:51;;;;;;;39.53;22.20;;;4.30;99.90;;;;;;5131533;27;20458;-72
2022/11/18 12:02:35;;;;;;;42.50;24.40;;;4.30;99.90;;;;;;5121478;27;20487;-73
2022/11/18 12:05:23;;;;;;;37.80;21.38;;;4.30;99.90;;;;;;5119331;27;20410;-73
2022/11/18 12:08:04;;;;;;;45.72;27.33;;;4.30;99.90;;;;;;5128178;27;20412;-73
2022/11/18 12:11:05;;;;;;;46.55;27.88;;;4.30;99.90;;;;;;5123776;27;20439;-73
2022/11/18 12:13:36;;;;;;;46.80;28.27;;;4.40;99.90;;;;;;5117782;27;20930;-73
2022/11/18 12:16:32;;;;;;;42.55;25.85;;;4.40;99.90;;;;;;5126765;27;20493;-73
2022/11/18 12:19:06;;;;;;;40.97;23.63;;;4.30;99.90;;;;;;5127426;27;20934;-72
2022/11/18 12:21:46;;;;;;;43.42;24.23;;;4.30;99.90;;;;;;5131794;27;20895;-73
2022/11/18 12:24:19;;;;;;;40.25;24.52;;;4.30;99.90;;;;;;5131621;27;20398;-72
2022/11/18 12:26:46;;;;;;;39.67;24.02;;;4.30;99.90;;;;;;5128307;27;20434;-72
2022/11/18 12:29:18;;;;;;;46.88;27.15;;;4.30;99.90;;;;;;5125979;27;20453;-73
2022/11/18 12:31:50;;;;;;;48.78;28.92;;;4.30;99.90;;;;;;5129335;27;20434;-73
2022/11/18 12:34:25;;;;;;;49.33;30.13;;;4.30;99.90;;;;;;5117621;27;20745;-72
2022/11/18 12:36:52;;;;;;;45.20;27.98;;;4.30;99.90;;;;;;5131197;27;20411;-72
2022/11/18 12:39:24;;;;;;;49.58;30.17;;;4.40;99.90;;;;;;5131315;27;20446;-73
2022/11/18 12:44:38;;;;;;;47.50;29.00;;;4.30;99.90;;;;;;5100807;28;20469;-72
2022/11/18 12:47:08;;;;;;;50.63;31.17;;;4.30;99.90;;;;;;5117366;27;20469;-73
2022/11/18 12:49:36;;;;;;;58.58;33.67;;;4.30;99.90;;;;;;5118709;27;20404;-72
2022/11/18 12:52:04;;;;;;;46.83;29.63;;;4.30;99.90;;;;;;5130726;27;20411;-72
2022/11/18 12:54:30;;;;;;;49.38;29.08;;;4.40;99.90;;;;;;5130215;27;20435;-72
2022/11/18 12:57:03;;;;;;;46.63;27.57;;;4.30;99.90;;;;;;5124549;27;20973;-73
2022/11/18 12:59:35;;;;;;;41.00;24.83;;;4.30;99.90;;;;;;5111030;27;20481;-73
2022/11/18 13:02:09;;;;;;;43.40;26.25;;;4.30;99.90;;;;;;5117183;27;20489;-73
2022/11/18 13:04:35;;;;;;;48.50;29.33;;;4.30;99.90;;;;;;5106687;27;20424;-73
2022/11/18 13:07:02;;;;;;;51.33;31.20;;;4.30;99.90;;;;;;5119175;27;20455;-73
2022/11/18 13:09:34;;;;;;;48.17;30.53;;;4.30;99.90;;;;;;5111846;27;20415;-73
2022/11/18 13:12:07;;;;;;;47.78;28.08;;;4.20;99.90;;;;;;5130442;27;20394;-73
2022/11/18 13:20:21;;;;;;;43.83;27.13;;;4.20;99.90;;;;;;5100386;28;20427;-72
2022/11/18 13:25:41;;;;;;;38.65;23.73;;;4.10;99.90;;;;;;5127084;27;20495;-72